sensor_id;sensor_type;location;lat;lon;timestamp;temperature;humidity
16999;DHT22;10211;49.476;11.010;2022-07-11T00:00:44;14.90;96.50
16999;DHT22;10211;49.476;11.010;2022-07-11T00:03:11;15.00;96.70
16999;DHT22;10211;49.476;11.010;2022-07-11T00:05:37;14.90;96.70
16999;DHT22;10211;49.476;11.010;2022-07-11T00:08:05;15.00;97.10
16999;DHT22;10211;49.476;11.010;2022-07-11T00:10:32;15.00;97.40
16999;DHT22;10211;49.476;11.010;2022-07-11T00:12:59;15.00;97.90
16999;DHT22;10211;49.476;11.010;2022-07-11T00:15:25;14.90;98.20
16999;DHT22;10211;49.476;11.010;2022-07-11T00:17:52;14.90;98.90
16999;DHT22;10211;49.476;11.010;2022-07-11T00:20:19;14.80;99.20
16999;DHT22;10211;49.476;11.010;2022-07-11T00:22:46;14.80;99.60
16999;DHT22;10211;49.476;11.010;2022-07-11T00:25:14;14.80;99.90
16999;DHT22;10211;49.476;11.010;2022-07-11T00:27:40;14.70;99.90
16999;DHT22;10211;49.476;11.010;2022-07-11T00:30:09;14.70;99.90
16999;DHT22;10211;49.476;11.010;2022-07-11T00:32:35;14.70;99.90
16999;DHT22;10211;49.476;11.010;2022-07-11T00:35:03;14.70;99.90
16999;DHT22;10211;49.476;11.010;2022-07-11T00:37:29;14.80;99.90
16999;DHT22;10211;49.476;11.010;2022-07-11T00:39:56;14.70;99.90
16999;DHT22;10211;49.476;11.010;2022-07-11T00:42:26;14.70;99.90
16999;DHT22;10211;49.476;11.010;2022-07-11T00:44:52;14.70;99.90
16999;DHT22;10211;49.476;11.010;2022-07-11T00:47:19;14.70;99.90
16999;DHT22;10211;49.476;11.010;2022-07-11T00:49:46;14.70;99.90
16999;DHT22;10211;49.476;11.010;2022-07-11T00:52:13;14.70;99.90
16999;DHT22;10211;49.476;11.010;2022-07-11T00:54:39;14.70;99.90
16999;DHT22;10211;49.476;11.010;2022-07-11T00:57:06;14.80;99.90
16999;DHT22;10211;49.476;11.010;2022-07-11T00:59:35;14.90;99.90
16999;DHT22;10211;49.476;11.010;2022-07-11T01:02:02;14.70;99.90
16999;DHT22;10211;49.476;11.010;2022-07-11T01:04:30;14.70;99.90
16999;DHT22;10211;49.476;11.010;2022-07-11T01:06:56;14.70;99.90
16999;DHT22;10211;49.476;11.010;2022-07-11T01:09:23;14.70;99.90
16999;DHT22;10211;49.476;11.010;2022-07-11T01:11:50;14.60;99.90
16999;DHT22;10211;49.476;11.010;2022-07-11T01:14:17;14.60;99.90
16999;DHT22;10211;49.476;11.010;2022-07-11T01:16:45;14.70;99.90
16999;DHT22;10211;49.476;11.010;2022-07-11T01:19:12;14.70;99.90
16999;DHT22;10211;49.476;11.010;2022-07-11T01:21:39;14.70;99.90
16999;DHT22;10211;49.476;11.010;2022-07-11T01:24:11;14.80;99.90
16999;DHT22;10211;49.476;11.010;2022-07-11T01:26:38;14.80;99.90
16999;DHT22;10211;49.476;11.010;2022-07-11T01:29:06;14.90;99.90
16999;DHT22;10211;49.476;11.010;2022-07-11T01:31:33;14.90;99.90
16999;DHT22;10211;49.476;11.010;2022-07-11T01:33:59;14.90;99.90
16999;DHT22;10211;49.476;11.010;2022-07-11T01:36:26;14.90;99.90
16999;DHT22;10211;49.476;11.010;2022-07-11T01:38:53;15.00;99.90
16999;DHT22;10211;49.476;11.010;2022-07-11T01:41:21;14.90;99.90
16999;DHT22;10211;49.476;11.010;2022-07-11T01:43:47;14.90;99.90
16999;DHT22;10211;49.476;11.010;2022-07-11T01:46:14;15.10;99.90
16999;DHT22;10211;49.476;11.010;2022-07-11T01:48:42;15.00;99.90
16999;DHT22;10211;49.476;11.010;2022-07-11T01:51:08;15.00;99.90
16999;DHT22;10211;49.476;11.010;2022-07-11T01:53:35;15.00;99.90
16999;DHT22;10211;49.476;11.010;2022-07-11T01:56:02;15.00;99.90
16999;DHT22;10211;49.476;11.010;2022-07-11T01:58:30;14.90;99.90
16999;DHT22;10211;49.476;11.010;2022-07-11T02:00:57;14.90;99.90
16999;DHT22;10211;49.476;11.010;2022-07-11T02:03:24;14.90;99.90
16999;DHT22;10211;49.476;11.010;2022-07-11T02:05:51;14.90;99.90
16999;DHT22;10211;49.476;11.010;2022-07-11T02:08:18;14.90;99.90
16999;DHT22;10211;49.476;11.010;2022-07-11T02:10:46;14.80;99.90
16999;DHT22;10211;49.476;11.010;2022-07-11T02:13:15;14.90;99.90
16999;DHT22;10211;49.476;11.010;2022-07-11T02:15:44;14.90;99.90
16999;DHT22;10211;49.476;11.010;2022-07-11T02:18:12;14.90;99.90
16999;DHT22;10211;49.476;11.010;2022-07-11T02:20:41;14.90;99.90
16999;DHT22;10211;49.476;11.010;2022-07-11T02:23:08;14.90;99.90
16999;DHT22;10211;49.476;11.010;2022-07-11T02:25:35;14.90;99.90
16999;DHT22;10211;49.476;11.010;2022-07-11T02:28:04;14.90;99.90
16999;DHT22;10211;49.476;11.010;2022-07-11T02:30:33;14.90;99.90
16999;DHT22;10211;49.476;11.010;2022-07-11T02:33:01;14.90;99.90
16999;DHT22;10211;49.476;11.010;2022-07-11T02:35:28;14.90;99.90
16999;DHT22;10211;49.476;11.010;2022-07-11T02:37:55;15.00;99.90
16999;DHT22;10211;49.476;11.010;2022-07-11T02:40:22;15.00;99.90
16999;DHT22;10211;49.476;11.010;2022-07-11T02:42:49;15.00;99.90
16999;DHT22;10211;49.476;11.010;2022-07-11T02:45:15;15.00;99.90
16999;DHT22;10211;49.476;11.010;2022-07-11T02:47:42;15.00;99.90
16999;DHT22;10211;49.476;11.010;2022-07-11T02:50:11;15.00;99.90
16999;DHT22;10211;49.476;11.010;2022-07-11T02:52:39;14.90;99.90
16999;DHT22;10211;49.476;11.010;2022-07-11T02:55:07;14.90;99.90
16999;DHT22;10211;49.476;11.010;2022-07-11T02:57:35;14.90;99.90
16999;DHT22;10211;49.476;11.010;2022-07-11T03:00:06;14.90;99.90
16999;DHT22;10211;49.476;11.010;2022-07-11T03:02:33;14.90;99.90
16999;DHT22;10211;49.476;11.010;2022-07-11T03:05:00;14.90;99.90
16999;DHT22;10211;49.476;11.010;2022-07-11T03:07:28;14.90;99.90
16999;DHT22;10211;49.476;11.010;2022-07-11T03:09:55;14.90;99.90
16999;DHT22;10211;49.476;11.010;2022-07-11T03:12:22;14.90;99.90
16999;DHT22;10211;49.476;11.010;2022-07-11T03:14:49;14.90;99.90
16999;DHT22;10211;49.476;11.010;2022-07-11T03:17:16;14.90;99.90
16999;DHT22;10211;49.476;11.010;2022-07-11T03:19:43;14.90;99.90
16999;DHT22;10211;49.476;11.010;2022-07-11T03:22:10;14.90;99.90
16999;DHT22;10211;49.476;11.010;2022-07-11T03:24:38;14.80;99.90
16999;DHT22;10211;49.476;11.010;2022-07-11T03:27:06;14.80;99.90
16999;DHT22;10211;49.476;11.010;2022-07-11T03:29:33;14.80;99.90
16999;DHT22;10211;49.476;11.010;2022-07-11T03:32:00;14.70;99.90
16999;DHT22;10211;49.476;11.010;2022-07-11T03:34:27;14.70;99.90
16999;DHT22;10211;49.476;11.010;2022-07-11T03:36:53;14.70;99.90
16999;DHT22;10211;49.476;11.010;2022-07-11T03:39:20;14.70;99.90
16999;DHT22;10211;49.476;11.010;2022-07-11T03:41:48;14.60;99.90
16999;DHT22;10211;49.476;11.010;2022-07-11T03:44:15;14.60;99.90
16999;DHT22;10211;49.476;11.010;2022-07-11T03:46:42;14.60;99.90
16999;DHT22;10211;49.476;11.010;2022-07-11T03:49:09;14.60;99.90
16999;DHT22;10211;49.476;11.010;2022-07-11T03:51:35;14.70;99.90
16999;DHT22;10211;49.476;11.010;2022-07-11T03:54:02;14.70;99.90
16999;DHT22;10211;49.476;11.010;2022-07-11T03:56:29;14.70;99.90
16999;DHT22;10211;49.476;11.010;2022-07-11T03:58:57;14.80;99.90
16999;DHT22;10211;49.476;11.010;2022-07-11T04:01:24;15.20;99.90
16999;DHT22;10211;49.476;11.010;2022-07-11T04:03:51;14.80;99.90
16999;DHT22;10211;49.476;11.010;2022-07-11T04:06:17;14.90;99.90
16999;DHT22;10211;49.476;11.010;2022-07-11T04:08:44;14.90;99.90
16999;DHT22;10211;49.476;11.010;2022-07-11T04:11:11;15.00;99.90
16999;DHT22;10211;49.476;11.010;2022-07-11T04:13:37;14.90;99.90
16999;DHT22;10211;49.476;11.010;2022-07-11T04:16:06;14.90;99.90
16999;DHT22;10211;49.476;11.010;2022-07-11T04:18:33;14.90;99.90
16999;DHT22;10211;49.476;11.010;2022-07-11T04:21:00;14.90;99.90
16999;DHT22;10211;49.476;11.010;2022-07-11T04:23:27;14.90;99.90
16999;DHT22;10211;49.476;11.010;2022-07-11T04:25:53;14.90;99.90
16999;DHT22;10211;49.476;11.010;2022-07-11T04:28:20;15.00;99.90
16999;DHT22;10211;49.476;11.010;2022-07-11T04:30:47;15.10;99.90
16999;DHT22;10211;49.476;11.010;2022-07-11T04:33:15;15.10;99.90
16999;DHT22;10211;49.476;11.010;2022-07-11T04:35:41;15.10;99.90
16999;DHT22;10211;49.476;11.010;2022-07-11T04:38:08;15.20;99.90
16999;DHT22;10211;49.476;11.010;2022-07-11T04:40:35;15.20;99.90
16999;DHT22;10211;49.476;11.010;2022-07-11T04:43:02;15.30;99.90
16999;DHT22;10211;49.476;11.010;2022-07-11T04:45:30;15.30;99.90
16999;DHT22;10211;49.476;11.010;2022-07-11T04:47:56;15.40;99.90
16999;DHT22;10211;49.476;11.010;2022-07-11T04:50:26;15.40;99.90
16999;DHT22;10211;49.476;11.010;2022-07-11T04:52:52;15.40;99.90
16999;DHT22;10211;49.476;11.010;2022-07-11T04:55:19;15.40;99.90
16999;DHT22;10211;49.476;11.010;2022-07-11T04:57:46;15.40;99.90
16999;DHT22;10211;49.476;11.010;2022-07-11T05:00:14;15.50;99.90
16999;DHT22;10211;49.476;11.010;2022-07-11T05:02:41;15.60;99.90
16999;DHT22;10211;49.476;11.010;2022-07-11T05:05:08;15.70;99.90
16999;DHT22;10211;49.476;11.010;2022-07-11T05:07:36;15.70;99.90
16999;DHT22;10211;49.476;11.010;2022-07-11T05:10:04;15.90;99.90
16999;DHT22;10211;49.476;11.010;2022-07-11T05:12:31;15.90;99.90
16999;DHT22;10211;49.476;11.010;2022-07-11T05:14:58;16.00;99.90
16999;DHT22;10211;49.476;11.010;2022-07-11T05:17:25;16.10;99.90
16999;DHT22;10211;49.476;11.010;2022-07-11T05:19:52;15.70;99.90
16999;DHT22;10211;49.476;11.010;2022-07-11T05:22:18;16.30;99.90
16999;DHT22;10211;49.476;11.010;2022-07-11T05:24:46;16.80;99.90
16999;DHT22;10211;49.476;11.010;2022-07-11T05:27:13;16.40;99.90
16999;DHT22;10211;49.476;11.010;2022-07-11T05:29:40;16.40;99.90
16999;DHT22;10211;49.476;11.010;2022-07-11T05:32:07;16.40;99.90
16999;DHT22;10211;49.476;11.010;2022-07-11T05:34:34;16.50;99.90
16999;DHT22;10211;49.476;11.010;2022-07-11T05:37:01;16.40;99.90
16999;DHT22;10211;49.476;11.010;2022-07-11T05:39:28;16.40;99.90
16999;DHT22;10211;49.476;11.010;2022-07-11T05:41:56;16.40;99.90
16999;DHT22;10211;49.476;11.010;2022-07-11T05:44:23;16.30;99.90
16999;DHT22;10211;49.476;11.010;2022-07-11T05:46:49;16.20;99.90
16999;DHT22;10211;49.476;11.010;2022-07-11T05:49:16;16.10;99.90
16999;DHT22;10211;49.476;11.010;2022-07-11T05:51:43;16.10;99.90
16999;DHT22;10211;49.476;11.010;2022-07-11T05:54:09;16.00;99.90
16999;DHT22;10211;49.476;11.010;2022-07-11T05:56:36;16.10;99.90
16999;DHT22;10211;49.476;11.010;2022-07-11T05:59:04;16.00;99.90
16999;DHT22;10211;49.476;11.010;2022-07-11T06:01:31;16.00;99.90
16999;DHT22;10211;49.476;11.010;2022-07-11T06:03:58;16.00;99.90
16999;DHT22;10211;49.476;11.010;2022-07-11T06:06:25;16.10;99.90
16999;DHT22;10211;49.476;11.010;2022-07-11T06:08:52;16.10;99.90
16999;DHT22;10211;49.476;11.010;2022-07-11T06:11:19;16.30;99.90
16999;DHT22;10211;49.476;11.010;2022-07-11T06:13:46;16.40;99.90
16999;DHT22;10211;49.476;11.010;2022-07-11T06:16:17;16.70;99.90
16999;DHT22;10211;49.476;11.010;2022-07-11T06:18:44;16.80;99.90
16999;DHT22;10211;49.476;11.010;2022-07-11T06:21:11;16.70;99.90
16999;DHT22;10211;49.476;11.010;2022-07-11T06:23:38;16.90;99.90
16999;DHT22;10211;49.476;11.010;2022-07-11T06:26:05;17.00;99.90
16999;DHT22;10211;49.476;11.010;2022-07-11T06:28:33;17.20;99.90
16999;DHT22;10211;49.476;11.010;2022-07-11T06:31:00;17.50;99.90
16999;DHT22;10211;49.476;11.010;2022-07-11T06:33:28;17.60;99.90
16999;DHT22;10211;49.476;11.010;2022-07-11T06:35:56;17.90;99.90
16999;DHT22;10211;49.476;11.010;2022-07-11T06:38:23;18.10;99.90
16999;DHT22;10211;49.476;11.010;2022-07-11T06:40:50;18.30;99.90
16999;DHT22;10211;49.476;11.010;2022-07-11T06:43:17;18.40;99.90
16999;DHT22;10211;49.476;11.010;2022-07-11T06:45:43;18.50;99.90
16999;DHT22;10211;49.476;11.010;2022-07-11T06:48:10;18.50;99.90
16999;DHT22;10211;49.476;11.010;2022-07-11T06:50:38;18.70;99.90
16999;DHT22;10211;49.476;11.010;2022-07-11T06:53:05;18.80;99.90
16999;DHT22;10211;49.476;11.010;2022-07-11T06:55:32;18.90;99.90
16999;DHT22;10211;49.476;11.010;2022-07-11T06:58:00;18.90;99.90
16999;DHT22;10211;49.476;11.010;2022-07-11T07:00:27;19.00;99.90
16999;DHT22;10211;49.476;11.010;2022-07-11T07:02:55;18.90;99.90
16999;DHT22;10211;49.476;11.010;2022-07-11T07:05:22;18.90;99.90
16999;DHT22;10211;49.476;11.010;2022-07-11T07:07:51;18.80;99.90
16999;DHT22;10211;49.476;11.010;2022-07-11T07:10:18;18.50;99.90
16999;DHT22;10211;49.476;11.010;2022-07-11T07:12:45;18.40;99.90
16999;DHT22;10211;49.476;11.010;2022-07-11T07:15:11;18.30;99.90
16999;DHT22;10211;49.476;11.010;2022-07-11T07:17:38;18.30;99.90
16999;DHT22;10211;49.476;11.010;2022-07-11T07:20:06;18.20;99.90
16999;DHT22;10211;49.476;11.010;2022-07-11T07:22:36;18.20;99.90
16999;DHT22;10211;49.476;11.010;2022-07-11T07:25:05;18.30;99.90
16999;DHT22;10211;49.476;11.010;2022-07-11T07:27:32;18.40;99.90
16999;DHT22;10211;49.476;11.010;2022-07-11T07:29:59;18.40;99.90
16999;DHT22;10211;49.476;11.010;2022-07-11T07:32:26;18.50;99.90
16999;DHT22;10211;49.476;11.010;2022-07-11T07:34:53;18.50;99.90
16999;DHT22;10211;49.476;11.010;2022-07-11T07:37:19;18.50;99.90
16999;DHT22;10211;49.476;11.010;2022-07-11T07:39:46;18.60;99.90
16999;DHT22;10211;49.476;11.010;2022-07-11T07:42:14;18.50;99.90
16999;DHT22;10211;49.476;11.010;2022-07-11T07:44:41;18.50;99.90
16999;DHT22;10211;49.476;11.010;2022-07-11T07:47:08;18.60;99.90
16999;DHT22;10211;49.476;11.010;2022-07-11T07:49:35;18.80;99.90
16999;DHT22;10211;49.476;11.010;2022-07-11T07:52:02;19.10;99.90
16999;DHT22;10211;49.476;11.010;2022-07-11T07:54:28;19.20;99.90
16999;DHT22;10211;49.476;11.010;2022-07-11T07:56:55;19.30;99.90
16999;DHT22;10211;49.476;11.010;2022-07-11T07:59:24;19.50;99.90
16999;DHT22;10211;49.476;11.010;2022-07-11T08:01:50;19.60;99.90
16999;DHT22;10211;49.476;11.010;2022-07-11T08:04:16;19.80;99.90
16999;DHT22;10211;49.476;11.010;2022-07-11T08:06:43;19.70;99.90
16999;DHT22;10211;49.476;11.010;2022-07-11T08:09:10;19.50;99.90
16999;DHT22;10211;49.476;11.010;2022-07-11T08:11:38;19.30;99.90
16999;DHT22;10211;49.476;11.010;2022-07-11T08:14:05;19.20;99.90
16999;DHT22;10211;49.476;11.010;2022-07-11T08:16:35;19.10;99.90
16999;DHT22;10211;49.476;11.010;2022-07-11T08:19:04;19.20;99.90
16999;DHT22;10211;49.476;11.010;2022-07-11T08:21:32;19.20;99.90
16999;DHT22;10211;49.476;11.010;2022-07-11T08:23:59;19.10;99.90
16999;DHT22;10211;49.476;11.010;2022-07-11T08:26:26;19.10;99.90
16999;DHT22;10211;49.476;11.010;2022-07-11T08:28:53;19.00;99.90
16999;DHT22;10211;49.476;11.010;2022-07-11T08:31:20;18.80;99.90
16999;DHT22;10211;49.476;11.010;2022-07-11T08:33:48;18.60;99.90
16999;DHT22;10211;49.476;11.010;2022-07-11T08:36:16;18.60;99.90
16999;DHT22;10211;49.476;11.010;2022-07-11T08:38:43;18.70;99.90
16999;DHT22;10211;49.476;11.010;2022-07-11T08:41:12;18.80;99.90
16999;DHT22;10211;49.476;11.010;2022-07-11T08:43:41;18.80;99.90
16999;DHT22;10211;49.476;11.010;2022-07-11T08:46:09;18.90;99.90
16999;DHT22;10211;49.476;11.010;2022-07-11T08:48:38;18.80;99.90
16999;DHT22;10211;49.476;11.010;2022-07-11T08:51:07;18.50;99.90
16999;DHT22;10211;49.476;11.010;2022-07-11T08:53:39;18.20;99.90
16999;DHT22;10211;49.476;11.010;2022-07-11T08:56:09;17.90;99.90
16999;DHT22;10211;49.476;11.010;2022-07-11T08:58:43;17.80;99.90
16999;DHT22;10211;49.476;11.010;2022-07-11T09:01:12;17.70;99.90
16999;DHT22;10211;49.476;11.010;2022-07-11T09:03:40;17.70;99.90
16999;DHT22;10211;49.476;11.010;2022-07-11T09:06:09;17.60;99.90
16999;DHT22;10211;49.476;11.010;2022-07-11T09:08:36;17.50;99.90
16999;DHT22;10211;49.476;11.010;2022-07-11T09:11:03;17.60;99.90
16999;DHT22;10211;49.476;11.010;2022-07-11T09:13:30;17.50;99.90
16999;DHT22;10211;49.476;11.010;2022-07-11T09:16:01;17.50;99.90
16999;DHT22;10211;49.476;11.010;2022-07-11T09:18:30;17.60;99.90
16999;DHT22;10211;49.476;11.010;2022-07-11T09:20:58;17.70;99.90
16999;DHT22;10211;49.476;11.010;2022-07-11T09:23:45;17.80;99.90
16999;DHT22;10211;49.476;11.010;2022-07-11T09:26:30;18.20;99.90
16999;DHT22;10211;49.476;11.010;2022-07-11T09:29:06;18.40;99.90
16999;DHT22;10211;49.476;11.010;2022-07-11T09:31:35;18.70;99.90
16999;DHT22;10211;49.476;11.010;2022-07-11T09:34:04;19.00;99.90
16999;DHT22;10211;49.476;11.010;2022-07-11T09:36:40;19.80;99.90
16999;DHT22;10211;49.476;11.010;2022-07-11T09:39:10;20.80;99.90
16999;DHT22;10211;49.476;11.010;2022-07-11T09:41:38;21.60;99.90
16999;DHT22;10211;49.476;11.010;2022-07-11T09:44:07;22.10;99.90
16999;DHT22;10211;49.476;11.010;2022-07-11T09:46:33;22.50;99.90
16999;DHT22;10211;49.476;11.010;2022-07-11T09:49:01;22.80;99.90
16999;DHT22;10211;49.476;11.010;2022-07-11T09:51:29;23.00;99.90
16999;DHT22;10211;49.476;11.010;2022-07-11T09:53:57;23.10;99.90
16999;DHT22;10211;49.476;11.010;2022-07-11T09:56:26;22.90;99.90
16999;DHT22;10211;49.476;11.010;2022-07-11T09:58:59;22.70;99.90
16999;DHT22;10211;49.476;11.010;2022-07-11T10:01:27;22.30;99.90
16999;DHT22;10211;49.476;11.010;2022-07-11T10:03:54;21.90;99.90
16999;DHT22;10211;49.476;11.010;2022-07-11T10:06:21;21.40;99.90
16999;DHT22;10211;49.476;11.010;2022-07-11T10:08:48;20.80;99.90
16999;DHT22;10211;49.476;11.010;2022-07-11T10:11:15;20.40;99.90
16999;DHT22;10211;49.476;11.010;2022-07-11T10:13:43;19.90;99.90
16999;DHT22;10211;49.476;11.010;2022-07-11T10:19:09;19.30;99.90
16999;DHT22;10211;49.476;11.010;2022-07-11T10:21:41;19.00;99.90
16999;DHT22;10211;49.476;11.010;2022-07-11T10:24:24;18.80;99.90
16999;DHT22;10211;49.476;11.010;2022-07-11T10:26:59;18.70;99.90
16999;DHT22;10211;49.476;11.010;2022-07-11T10:29:33;18.60;99.90
16999;DHT22;10211;49.476;11.010;2022-07-11T10:32:06;18.40;99.90
16999;DHT22;10211;49.476;11.010;2022-07-11T10:34:33;18.30;99.90
16999;DHT22;10211;49.476;11.010;2022-07-11T10:37:00;18.30;99.90
16999;DHT22;10211;49.476;11.010;2022-07-11T10:39:28;18.30;99.90
16999;DHT22;10211;49.476;11.010;2022-07-11T10:41:56;18.40;99.90
16999;DHT22;10211;49.476;11.010;2022-07-11T10:44:23;18.40;99.90
16999;DHT22;10211;49.476;11.010;2022-07-11T10:46:52;18.40;99.90
16999;DHT22;10211;49.476;11.010;2022-07-11T10:49:32;18.30;99.90
16999;DHT22;10211;49.476;11.010;2022-07-11T10:52:04;18.20;99.90
16999;DHT22;10211;49.476;11.010;2022-07-11T10:54:42;18.10;99.90
16999;DHT22;10211;49.476;11.010;2022-07-11T10:57:19;18.10;99.90
16999;DHT22;10211;49.476;11.010;2022-07-11T10:59:58;18.00;99.90
16999;DHT22;10211;49.476;11.010;2022-07-11T11:02:26;18.00;99.90
16999;DHT22;10211;49.476;11.010;2022-07-11T11:04:54;18.10;99.90
16999;DHT22;10211;49.476;11.010;2022-07-11T11:07:28;18.30;99.90
16999;DHT22;10211;49.476;11.010;2022-07-11T11:09:57;19.00;99.90
16999;DHT22;10211;49.476;11.010;2022-07-11T11:15:32;24.60;99.90
16999;DHT22;10211;49.476;11.010;2022-07-11T11:18:30;27.90;96.30
16999;DHT22;10211;49.476;11.010;2022-07-11T11:21:29;28.70;91.10
16999;DHT22;10211;49.476;11.010;2022-07-11T11:24:07;29.20;87.70
16999;DHT22;10211;49.476;11.010;2022-07-11T11:26:48;28.80;85.50
16999;DHT22;10211;49.476;11.010;2022-07-11T11:29:20;27.70;85.50
16999;DHT22;10211;49.476;11.010;2022-07-11T11:31:55;26.20;87.70
16999;DHT22;10211;49.476;11.010;2022-07-11T11:34:24;25.10;90.90
16999;DHT22;10211;49.476;11.010;2022-07-11T11:36:57;24.50;91.50
16999;DHT22;10211;49.476;11.010;2022-07-11T11:39:26;24.10;92.80
16999;DHT22;10211;49.476;11.010;2022-07-11T11:41:53;23.90;93.50
16999;DHT22;10211;49.476;11.010;2022-07-11T11:44:20;23.50;94.30
16999;DHT22;10211;49.476;11.010;2022-07-11T11:46:50;23.10;94.80
16999;DHT22;10211;49.476;11.010;2022-07-11T11:49:19;22.80;95.40
16999;DHT22;10211;49.476;11.010;2022-07-11T11:51:47;22.50;96.10
16999;DHT22;10211;49.476;11.010;2022-07-11T11:54:21;22.10;96.70
16999;DHT22;10211;49.476;11.010;2022-07-11T11:56:49;21.70;97.40
16999;DHT22;10211;49.476;11.010;2022-07-11T11:59:16;21.60;98.30
16999;DHT22;10211;49.476;11.010;2022-07-11T12:01:45;21.70;98.70
16999;DHT22;10211;49.476;11.010;2022-07-11T12:04:14;22.00;98.10
16999;DHT22;10211;49.476;11.010;2022-07-11T12:06:42;22.40;97.40
16999;DHT22;10211;49.476;11.010;2022-07-11T12:09:12;23.00;96.80
16999;DHT22;10211;49.476;11.010;2022-07-11T12:11:42;24.10;95.40
16999;DHT22;10211;49.476;11.010;2022-07-11T12:14:10;25.60;92.40
16999;DHT22;10211;49.476;11.010;2022-07-11T12:16:40;27.10;90.00
16999;DHT22;10211;49.476;11.010;2022-07-11T12:19:09;28.70;85.50
16999;DHT22;10211;49.476;11.010;2022-07-11T12:21:38;30.20;78.60
16999;DHT22;10211;49.476;11.010;2022-07-11T12:24:07;30.70;73.20
16999;DHT22;10211;49.476;11.010;2022-07-11T12:26:37;29.80;71.60
16999;DHT22;10211;49.476;11.010;2022-07-11T12:29:09;28.20;74.50
16999;DHT22;10211;49.476;11.010;2022-07-11T12:31:41;28.10;76.90
16999;DHT22;10211;49.476;11.010;2022-07-11T12:34:08;27.80;75.20
16999;DHT22;10211;49.476;11.010;2022-07-11T12:36:34;27.70;75.50
16999;DHT22;10211;49.476;11.010;2022-07-11T12:39:01;27.90;75.80
16999;DHT22;10211;49.476;11.010;2022-07-11T12:41:30;28.10;76.10
16999;DHT22;10211;49.476;11.010;2022-07-11T12:43:58;27.40;76.20
16999;DHT22;10211;49.476;11.010;2022-07-11T12:46:42;26.70;76.50
16999;DHT22;10211;49.476;11.010;2022-07-11T12:49:10;26.10;78.30
16999;DHT22;10211;49.476;11.010;2022-07-11T12:51:38;25.50;79.50
16999;DHT22;10211;49.476;11.010;2022-07-11T12:54:07;24.90;81.60
16999;DHT22;10211;49.476;11.010;2022-07-11T12:56:34;24.40;84.30
16999;DHT22;10211;49.476;11.010;2022-07-11T12:59:03;23.80;86.30
16999;DHT22;10211;49.476;11.010;2022-07-11T13:01:31;23.20;87.80
16999;DHT22;10211;49.476;11.010;2022-07-11T13:03:59;23.10;89.10
16999;DHT22;10211;49.476;11.010;2022-07-11T13:06:25;23.40;89.00
16999;DHT22;10211;49.476;11.010;2022-07-11T13:09:13;23.90;87.30
16999;DHT22;10211;49.476;11.010;2022-07-11T13:11:40;24.40;85.60
16999;DHT22;10211;49.476;11.010;2022-07-11T13:14:09;24.70;85.40
16999;DHT22;10211;49.476;11.010;2022-07-11T13:16:49;24.70;85.60
16999;DHT22;10211;49.476;11.010;2022-07-11T13:19:16;25.10;83.50
16999;DHT22;10211;49.476;11.010;2022-07-11T13:21:43;25.40;83.10
16999;DHT22;10211;49.476;11.010;2022-07-11T13:24:09;25.30;83.50
16999;DHT22;10211;49.476;11.010;2022-07-11T13:26:36;25.20;82.50
16999;DHT22;10211;49.476;11.010;2022-07-11T13:29:03;25.10;83.40
16999;DHT22;10211;49.476;11.010;2022-07-11T13:31:31;24.80;83.20
16999;DHT22;10211;49.476;11.010;2022-07-11T13:33:58;24.00;85.70
16999;DHT22;10211;49.476;11.010;2022-07-11T13:36:24;23.80;86.90
16999;DHT22;10211;49.476;11.010;2022-07-11T13:38:51;23.70;87.30
16999;DHT22;10211;49.476;11.010;2022-07-11T13:41:18;23.90;87.40
16999;DHT22;10211;49.476;11.010;2022-07-11T13:43:45;24.20;86.90
16999;DHT22;10211;49.476;11.010;2022-07-11T13:46:12;24.00;85.90
16999;DHT22;10211;49.476;11.010;2022-07-11T13:48:40;23.80;86.20
16999;DHT22;10211;49.476;11.010;2022-07-11T13:51:07;23.70;87.20
16999;DHT22;10211;49.476;11.010;2022-07-11T13:53:35;23.70;87.80
16999;DHT22;10211;49.476;11.010;2022-07-11T13:56:02;23.70;86.70
16999;DHT22;10211;49.476;11.010;2022-07-11T13:58:29;23.70;86.70
16999;DHT22;10211;49.476;11.010;2022-07-11T14:00:56;23.60;86.90
16999;DHT22;10211;49.476;11.010;2022-07-11T14:03:22;23.80;87.20
16999;DHT22;10211;49.476;11.010;2022-07-11T14:05:50;24.00;85.80
16999;DHT22;10211;49.476;11.010;2022-07-11T14:08:18;24.30;85.40
16999;DHT22;10211;49.476;11.010;2022-07-11T14:10:44;24.40;84.70
16999;DHT22;10211;49.476;11.010;2022-07-11T14:13:11;24.60;83.90
16999;DHT22;10211;49.476;11.010;2022-07-11T14:15:38;25.20;84.10
16999;DHT22;10211;49.476;11.010;2022-07-11T14:18:05;24.70;83.80
16999;DHT22;10211;49.476;11.010;2022-07-11T14:20:32;24.70;83.10
16999;DHT22;10211;49.476;11.010;2022-07-11T14:23:00;24.60;83.30
16999;DHT22;10211;49.476;11.010;2022-07-11T14:25:26;24.60;83.20
16999;DHT22;10211;49.476;11.010;2022-07-11T14:27:53;24.60;83.80
16999;DHT22;10211;49.476;11.010;2022-07-11T14:30:20;24.60;83.10
16999;DHT22;10211;49.476;11.010;2022-07-11T14:32:47;24.50;82.30
16999;DHT22;10211;49.476;11.010;2022-07-11T14:35:14;24.30;82.50
16999;DHT22;10211;49.476;11.010;2022-07-11T14:37:40;24.20;83.30
16999;DHT22;10211;49.476;11.010;2022-07-11T14:40:09;23.80;84.10
16999;DHT22;10211;49.476;11.010;2022-07-11T14:42:36;23.70;85.10
16999;DHT22;10211;49.476;11.010;2022-07-11T14:45:03;23.70;85.20
16999;DHT22;10211;49.476;11.010;2022-07-11T14:47:32;23.70;85.30
16999;DHT22;10211;49.476;11.010;2022-07-11T14:49:58;23.70;85.50
16999;DHT22;10211;49.476;11.010;2022-07-11T14:52:25;23.70;84.60
16999;DHT22;10211;49.476;11.010;2022-07-11T14:54:52;23.70;84.80
16999;DHT22;10211;49.476;11.010;2022-07-11T14:57:20;23.80;85.00
16999;DHT22;10211;49.476;11.010;2022-07-11T14:59:47;24.00;84.40
16999;DHT22;10211;49.476;11.010;2022-07-11T15:02:14;23.90;84.60
16999;DHT22;10211;49.476;11.010;2022-07-11T15:04:41;23.70;84.80
16999;DHT22;10211;49.476;11.010;2022-07-11T15:07:08;23.50;85.30
16999;DHT22;10211;49.476;11.010;2022-07-11T15:09:52;23.50;85.90
16999;DHT22;10211;49.476;11.010;2022-07-11T15:12:34;23.30;86.80
16999;DHT22;10211;49.476;11.010;2022-07-11T15:15:04;22.90;87.70
16999;DHT22;10211;49.476;11.010;2022-07-11T15:17:32;22.70;88.00
16999;DHT22;10211;49.476;11.010;2022-07-11T15:19:59;22.70;88.30
16999;DHT22;10211;49.476;11.010;2022-07-11T15:22:25;22.50;88.60
16999;DHT22;10211;49.476;11.010;2022-07-11T15:24:52;22.50;89.00
16999;DHT22;10211;49.476;11.010;2022-07-11T15:27:19;22.50;89.20